Time;durP1;ratioP1;P1;durP2;ratioP2;P2;SDS_P1;SDS_P2;PMS_P1;PMS_P2;Temp;Humidity;BMP_temperature;BMP_pressure;BME280_temperature;BME280_humidity;BME280_pressure;Samples;Min_cycle;Max_cycle;Signal;HPM_P1;HPM_P2
2022/10/02 00:02:07;;;;;;;13.23;1.88;;;12.20;99.90;;;;;;6242494;23;20364;-79
2022/10/02 00:04:41;;;;;;;10.07;1.63;;;12.20;99.90;;;;;;6244476;23;20024;-78
2022/10/02 00:07:10;;;;;;;15.73;2.17;;;12.20;99.90;;;;;;6244547;22;20024;-78
2022/10/02 00:09:51;;;;;;;9.88;1.60;;;12.20;99.90;;;;;;6244585;22;20016;-84
2022/10/02 00:12:20;;;;;;;11.57;2.08;;;12.20;99.90;;;;;;6243484;23;20020;-80
2022/10/02 00:14:50;;;;;;;11.90;2.03;;;12.10;99.90;;;;;;6242362;22;20031;-82
2022/10/02 00:17:33;;;;;;;11.98;1.77;;;12.10;99.90;;;;;;6242643;23;20027;-78
2022/10/02 00:20:00;;;;;;;13.45;2.13;;;12.20;99.90;;;;;;6243905;22;20024;-83
2022/10/02 00:22:56;;;;;;;8.18;2.10;;;12.10;99.90;;;;;;6241918;23;20055;-76
2022/10/02 00:25:37;;;;;;;12.55;1.85;;;12.10;99.90;;;;;;6242984;23;20078;-81
2022/10/02 00:28:16;;;;;;;11.80;2.22;;;12.00;99.90;;;;;;6242051;23;20027;-84
2022/10/02 00:31:21;;;;;;;16.17;2.50;;;11.90;99.90;;;;;;6242139;23;20032;-78
2022/10/02 00:34:20;;;;;;;13.60;2.05;;;11.80;99.90;;;;;;6242050;23;20022;-83
2022/10/02 00:37:05;;;;;;;13.10;2.20;;;11.80;99.90;;;;;;6244496;22;20024;-79
2022/10/02 00:39:44;;;;;;;15.40;2.42;;;11.70;99.90;;;;;;6244311;22;20031;-76
2022/10/02 00:42:42;;;;;;;18.98;2.50;;;11.70;99.90;;;;;;6242183;23;20028;-77
2022/10/02 00:45:17;;;;;;;18.08;2.95;;;11.70;99.90;;;;;;6243739;22;20129;-84
2022/10/02 00:47:42;;;;;;;;;;;11.60;99.90;;;;;;6244303;23;20434;-82
2022/10/02 00:50:39;;;;;;;17.83;3.00;;;11.60;99.90;;;;;;6216620;23;19925;-78
2022/10/02 00:53:12;;;;;;;17.27;2.75;;;11.60;99.90;;;;;;6242621;23;20024;-76
2022/10/02 00:55:53;;;;;;;25.05;3.40;;;11.60;99.90;;;;;;6242129;23;20024;-81
2022/10/02 00:58:52;;;;;;;13.80;3.05;;;11.60;99.90;;;;;;6242005;23;20452;-76
2022/10/02 01:01:23;;;;;;;16.55;2.58;;;11.60;99.90;;;;;;6244167;22;20023;-78
2022/10/02 01:03:55;;;;;;;20.70;3.15;;;11.50;99.90;;;;;;6243909;22;20016;-77
2022/10/02 01:06:27;;;;;;;11.77;2.70;;;11.50;99.90;;;;;;6242266;23;20039;-78
2022/10/02 01:08:53;;;;;;;21.75;3.03;;;11.50;99.90;;;;;;6242495;23;20401;-80
2022/10/02 01:11:22;;;;;;;18.65;2.85;;;11.40;99.90;;;;;;6243410;22;20020;-77
2022/10/02 01:13:49;;;;;;;18.73;3.47;;;11.40;99.90;;;;;;6243508;22;20086;-78
2022/10/02 01:16:16;;;;;;;24.73;3.10;;;11.40;99.90;;;;;;6241998;23;20106;-76
2022/10/02 01:18:46;;;;;;;16.10;3.60;;;11.40;99.90;;;;;;6242322;23;20341;-78
2022/10/02 01:21:41;;;;;;;18.52;2.90;;;11.30;99.90;;;;;;6241699;23;20608;-80
2022/10/02 01:24:39;;;;;;;18.55;3.33;;;11.30;99.90;;;;;;6242379;23;20024;-81
2022/10/02 01:27:05;;;;;;;18.92;3.53;;;11.30;99.90;;;;;;6237083;23;20397;-84
2022/10/02 01:29:31;;;;;;;19.13;3.85;;;11.30;99.90;;;;;;6241697;23;20532;-85
2022/10/02 01:31:57;;;;;;;16.83;3.10;;;11.30;99.90;;;;;;6243559;22;20024;-77
2022/10/02 01:34:23;;;;;;;18.92;3.50;;;11.30;99.90;;;;;;6243789;22;20469;-79
2022/10/02 01:36:49;;;;;;;20.17;3.00;;;11.30;99.90;;;;;;6242965;23;20026;-79
2022/10/02 01:39:15;;;;;;;17.58;3.22;;;11.30;99.90;;;;;;6241757;23;20341;-79
2022/10/02 01:41:43;;;;;;;19.00;3.00;;;11.40;99.90;;;;;;6242099;23;20062;-85
2022/10/02 01:44:10;;;;;;;18.40;3.42;;;11.40;99.90;;;;;;6243714;22;20073;-79
2022/10/02 01:47:00;;;;;;;17.73;3.35;;;11.40;99.90;;;;;;6242838;22;20020;-79
2022/10/02 01:49:56;;;;;;;14.38;2.40;;;11.40;99.90;;;;;;6241512;23;20027;-77
2022/10/02 01:52:37;;;;;;;24.15;4.20;;;11.40;99.90;;;;;;6241546;23;20075;-77
2022/10/02 01:55:27;;;;;;;20.83;2.90;;;11.30;99.90;;;;;;6241451;23;20032;-78
2022/10/02 01:58:08;;;;;;;16.10;3.08;;;11.40;99.90;;;;;;6243379;23;20035;-78
2022/10/02 02:00:57;;;;;;;15.85;2.80;;;11.30;99.90;;;;;;6241809;23;20031;-80
2022/10/02 02:03:34;;;;;;;17.80;2.67;;;11.30;99.90;;;;;;6243049;22;20064;-79
2022/10/02 02:06:13;;;;;;;18.90;2.80;;;11.30;99.90;;;;;;6216511;23;20028;-77
2022/10/02 02:08:50;;;;;;;23.67;3.05;;;11.30;99.90;;;;;;6241669;23;20024;-79
2022/10/02 02:11:20;;;;;;;14.30;3.25;;;11.40;99.90;;;;;;6216634;23;20054;-81
2022/10/02 02:14:10;;;;;;;18.17;3.63;;;11.40;99.90;;;;;;6241974;22;20047;-82
2022/10/02 02:16:54;;;;;;;17.42;3.38;;;11.50;99.90;;;;;;6244023;22;20026;-83
2022/10/02 02:20:00;;;;;;;17.08;2.78;;;11.60;99.90;;;;;;6244282;22;20103;-78
2022/10/02 02:22:28;;;;;;;;;;;11.60;99.90;;;;;;6185036;23;20389;-77
2022/10/02 02:25:00;;;;;;;17.40;2.83;;;11.60;99.90;;;;;;6238548;23;19923;-78
2022/10/02 02:27:32;;;;;;;15.73;2.58;;;11.70;99.90;;;;;;6241485;23;20457;-79
2022/10/02 02:30:04;;;;;;;25.27;3.50;;;11.80;99.90;;;;;;6241389;23;20028;-74
2022/10/02 02:32:34;;;;;;;25.45;4.68;;;11.80;99.90;;;;;;6243035;22;20020;-79
2022/10/02 02:35:05;;;;;;;36.08;5.60;;;11.70;99.90;;;;;;6241237;23;20017;-74
2022/10/02 02:37:34;;;;;;;14.95;2.65;;;11.70;99.90;;;;;;6241556;23;20336;-74
2022/10/02 02:40:15;;;;;;;15.13;2.97;;;11.70;99.90;;;;;;6266604;22;20024;-80
2022/10/02 02:42:46;;;;;;;16.42;3.05;;;11.70;99.90;;;;;;6243128;22;20326;-76
2022/10/02 02:45:19;;;;;;;16.42;3.05;;;11.70;99.90;;;;;;6243337;22;20095;-75
2022/10/02 02:48:01;;;;;;;15.95;3.03;;;11.70;99.90;;;;;;6242775;23;20318;-78
2022/10/02 02:50:30;;;;;;;14.15;2.35;;;11.70;99.90;;;;;;6241901;23;20029;-76
2022/10/02 02:53:05;;;;;;;17.42;2.67;;;11.70;99.90;;;;;;6241622;23;20403;-77
2022/10/02 02:55:36;;;;;;;10.65;2.03;;;11.70;99.90;;;;;;6216100;23;20020;-79
2022/10/02 02:58:38;;;;;;;16.13;2.50;;;11.60;99.90;;;;;;6243082;23;20021;-79
2022/10/02 03:01:04;;;;;;;22.48;3.70;;;11.60;99.90;;;;;;6245644;22;20127;-82
2022/10/02 03:03:30;;;;;;;23.67;4.45;;;11.60;99.90;;;;;;6246336;23;20055;-76
2022/10/02 03:06:05;;;;;;;18.00;4.45;;;11.60;99.90;;;;;;6246601;22;20031;-80
2022/10/02 03:08:35;;;;;;;17.02;3.63;;;11.60;99.90;;;;;;6243712;23;20016;-77
2022/10/02 03:11:06;;;;;;;17.90;3.45;;;11.60;99.90;;;;;;6243610;23;20082;-83
2022/10/02 03:13:57;;;;;;;26.15;3.33;;;11.60;99.90;;;;;;6246516;22;20012;-78
2022/10/02 03:16:45;;;;;;;26.23;3.80;;;11.60;99.90;;;;;;6244053;23;20024;-79
2022/10/02 03:19:44;;;;;;;26.23;4.55;;;11.70;99.90;;;;;;6244754;22;20091;-81
2022/10/02 03:22:48;;;;;;;16.33;3.20;;;11.80;99.90;;;;;;6244755;22;20039;-77
2022/10/02 03:25:52;;;;;;;31.52;4.63;;;11.80;99.90;;;;;;6240105;23;20017;-77
2022/10/02 03:28:47;;;;;;;30.10;4.15;;;11.90;99.90;;;;;;6241135;23;20028;-78
2022/10/02 03:31:14;;;;;;;29.95;4.85;;;12.00;99.90;;;;;;6242892;23;20131;-76
2022/10/02 03:33:42;;;;;;;29.83;4.70;;;12.00;99.90;;;;;;6242861;23;20024;-75
2022/10/02 03:36:11;;;;;;;25.55;3.45;;;12.00;99.90;;;;;;6244211;22;20020;-76
2022/10/02 03:38:38;;;;;;;22.08;4.70;;;12.00;99.90;;;;;;6242508;23;20145;-76
2022/10/02 03:41:04;;;;;;;22.42;3.70;;;12.00;99.90;;;;;;6243540;23;20020;-75
2022/10/02 03:43:30;;;;;;;27.98;4.30;;;12.00;99.90;;;;;;6245319;22;20020;-76
2022/10/02 03:45:56;;;;;;;20.80;3.90;;;12.00;99.90;;;;;;6242807;23;20028;-79
2022/10/02 03:48:22;;;;;;;17.73;3.47;;;12.00;99.90;;;;;;6243164;23;20030;-76
2022/10/02 03:50:51;;;;;;;31.27;4.25;;;12.00;99.90;;;;;;6244512;22;20024;-78
2022/10/02 03:53:22;;;;;;;27.63;4.38;;;12.00;99.90;;;;;;6244480;23;20051;-77
2022/10/02 03:56:01;;;;;;;24.02;4.28;;;11.90;99.90;;;;;;6242713;23;20024;-77
2022/10/02 03:58:28;;;;;;;27.30;3.70;;;12.00;99.90;;;;;;6243522;23;20322;-79
2022/10/02 04:01:09;;;;;;;22.38;3.65;;;12.00;99.90;;;;;;6242741;23;20020;-77
2022/10/02 04:04:17;;;;;;;29.55;5.00;;;12.00;99.90;;;;;;6242408;23;20020;-77
2022/10/02 04:06:52;;;;;;;30.50;4.78;;;12.00;99.90;;;;;;6242248;23;20032;-77
2022/10/02 04:09:39;;;;;;;21.02;3.50;;;12.00;99.90;;;;;;6241974;23;20031;-79
2022/10/02 04:12:18;;;;;;;18.50;3.45;;;11.90;99.90;;;;;;6217537;23;20103;-84
2022/10/02 04:14:56;;;;;;;22.17;3.67;;;11.90;99.90;;;;;;6245287;22;20318;-78
2022/10/02 04:17:31;;;;;;;19.35;4.03;;;11.90;99.90;;;;;;6244817;22;20020;-80
2022/10/02 04:20:09;;;;;;;;;;;11.90;99.90;;;;;;6242859;23;20058;-78
2022/10/02 04:23:14;;;;;;;28.90;5.00;;;11.90;99.90;;;;;;6242280;23;19919;-78
2022/10/02 04:25:46;;;;;;;20.23;4.20;;;11.80;99.90;;;;;;6243217;23;20032;-79
2022/10/02 04:28:26;;;;;;;23.63;4.53;;;11.80;99.90;;;;;;6244530;22;20020;-79
2022/10/02 04:30:53;;;;;;;16.45;3.20;;;11.80;99.90;;;;;;6245060;22;20353;-80
2022/10/02 04:33:21;;;;;;;25.45;5.07;;;11.70;99.90;;;;;;6244535;23;20031;-78
2022/10/02 04:36:12;;;;;;;27.40;4.15;;;11.70;99.90;;;;;;6244423;22;20127;-77
2022/10/02 04:38:55;;;;;;;26.10;4.25;;;11.70;99.90;;;;;;6244081;23;20036;-81
2022/10/02 04:41:40;;;;;;;23.02;3.03;;;11.70;99.90;;;;;;6247548;22;20024;-79
2022/10/02 04:44:33;;;;;;;20.08;3.30;;;11.60;99.90;;;;;;6243850;23;20028;-77
2022/10/02 04:47:23;;;;;;;17.65;3.20;;;11.60;99.90;;;;;;6245405;22;20406;-84
2022/10/02 04:50:16;;;;;;;27.30;3.90;;;11.60;99.90;;;;;;6242205;23;20024;-85
2022/10/02 04:53:11;;;;;;;21.48;3.40;;;11.60;99.90;;;;;;6241955;23;20056;-85
2022/10/02 04:56:07;;;;;;;27.27;3.40;;;11.60;99.90;;;;;;6243896;22;20020;-85
2022/10/02 04:58:54;;;;;;;25.30;4.35;;;11.50;99.90;;;;;;6242424;23;20043;-83
2022/10/02 05:01:40;;;;;;;25.27;4.25;;;11.50;99.90;;;;;;6245591;22;20032;-81
2022/10/02 05:04:24;;;;;;;18.42;4.07;;;11.40;99.90;;;;;;6244301;22;20024;-78
2022/10/02 05:07:08;;;;;;;19.67;3.43;;;11.40;99.90;;;;;;6242703;23;20090;-82
2022/10/02 05:09:39;;;;;;;26.90;6.18;;;11.40;99.90;;;;;;6243920;22;20024;-79
2022/10/02 05:12:35;;;;;;;23.20;4.10;;;11.40;99.90;;;;;;6242006;23;20471;-84
2022/10/02 05:15:04;;;;;;;23.45;4.03;;;11.30;99.90;;;;;;6220360;23;20028;-79
2022/10/02 05:17:45;;;;;;;24.20;3.85;;;11.30;99.90;;;;;;6241952;23;20054;-81
2022/10/02 05:20:17;;;;;;;27.13;3.55;;;11.30;99.90;;;;;;6243514;22;20023;-80
2022/10/02 05:22:55;;;;;;;22.27;3.58;;;11.20;99.90;;;;;;6244550;23;20043;-78
2022/10/02 05:25:55;;;;;;;19.95;3.03;;;11.30;99.90;;;;;;6242017;23;20123;-81
2022/10/02 05:28:57;;;;;;;26.73;3.58;;;11.20;99.90;;;;;;6243307;22;20024;-80
2022/10/02 05:32:14;;;;;;;23.00;3.50;;;11.20;99.90;;;;;;6243640;22;20376;-78
2022/10/02 05:35:05;;;;;;;25.33;4.57;;;11.20;99.90;;;;;;6215086;23;20537;-79
2022/10/02 05:37:36;;;;;;;27.90;4.78;;;11.20;99.90;;;;;;6243274;22;20020;-77
2022/10/02 05:40:26;;;;;;;21.30;3.45;;;11.10;99.90;;;;;;6241481;23;20453;-80
2022/10/02 05:43:04;;;;;;;24.40;3.45;;;11.10;99.90;;;;;;6243413;23;20103;-80
2022/10/02 05:46:04;;;;;;;26.85;3.45;;;11.10;99.90;;;;;;6241495;23;20032;-77
2022/10/02 05:48:38;;;;;;;27.92;5.47;;;11.10;99.90;;;;;;6237321;23;20016;-78
2022/10/02 05:51:17;;;;;;;22.40;4.53;;;11.10;99.90;;;;;;6241451;23;20035;-80
2022/10/02 05:53:49;;;;;;;25.50;3.55;;;11.10;99.90;;;;;;6243047;22;20123;-76
2022/10/02 05:56:33;;;;;;;25.63;3.53;;;11.20;99.90;;;;;;6241349;23;20032;-76
2022/10/02 05:59:18;;;;;;;19.73;4.15;;;11.20;99.90;;;;;;6243812;22;20051;-83
2022/10/02 06:01:48;;;;;;;20.95;4.00;;;11.30;99.90;;;;;;6243452;22;20027;-76
2022/10/02 06:04:30;;;;;;;22.92;3.60;;;11.30;99.90;;;;;;6243463;22;20020;-79
2022/10/02 06:07:06;;;;;;;24.90;3.58;;;11.30;99.90;;;;;;6241469;23;20016;-80
2022/10/02 06:10:01;;;;;;;29.45;3.53;;;11.40;99.90;;;;;;6241637;23;20044;-76
2022/10/02 06:13:10;;;;;;;23.23;4.30;;;11.40;99.90;;;;;;6241506;23;20024;-76
2022/10/02 06:15:44;;;;;;;19.95;3.72;;;11.50;99.90;;;;;;6216029;23;20103;-80
2022/10/02 06:18:22;;;;;;;22.60;3.20;;;11.50;99.90;;;;;;6243787;22;20107;-75
2022/10/02 06:20:58;;;;;;;27.17;3.60;;;11.50;99.90;;;;;;6243456;22;20020;-78
2022/10/02 06:23:36;;;;;;;28.17;4.70;;;11.60;99.90;;;;;;6216381;23;20028;-75
2022/10/02 06:26:08;;;;;;;22.50;4.63;;;11.60;99.90;;;;;;6244035;22;20017;-77
2022/10/02 06:28:45;;;;;;;39.75;4.53;;;11.70;99.90;;;;;;6244240;22;20395;-77
2022/10/02 06:31:42;;;;;;;23.48;3.88;;;11.80;99.90;;;;;;6243018;22;20031;-76
2022/10/02 06:34:11;;;;;;;28.65;4.28;;;11.80;99.90;;;;;;6244796;22;20556;-77
2022/10/02 06:37:00;;;;;;;28.30;4.63;;;11.90;99.90;;;;;;6244702;22;20392;-73
2022/10/02 06:39:47;;;;;;;34.08;5.20;;;12.00;99.90;;;;;;6229351;23;20038;-75
2022/10/02 06:42:41;;;;;;;34.95;7.68;;;12.00;99.90;;;;;;6245232;22;20039;-75
2022/10/02 06:45:24;;;;;;;21.07;3.87;;;12.00;99.90;;;;;;6212026;23;20530;-79
2022/10/02 06:48:12;;;;;;;37.17;4.13;;;11.90;99.90;;;;;;6244705;22;20024;-80
2022/10/02 06:51:06;;;;;;;30.35;4.63;;;11.90;99.90;;;;;;6245187;22;20464;-77
2022/10/02 06:53:59;;;;;;;31.15;4.70;;;11.90;99.90;;;;;;6243468;23;20016;-76
2022/10/02 06:56:46;;;;;;;34.53;4.10;;;12.00;99.90;;;;;;6245263;22;20692;-77
2022/10/02 06:59:35;;;;;;;31.67;4.15;;;12.10;99.90;;;;;;6245181;22;20020;-78
2022/10/02 07:02:09;;;;;;;22.33;3.33;;;12.10;99.90;;;;;;6243944;23;20028;-76
2022/10/02 07:04:57;;;;;;;33.72;3.75;;;12.10;99.90;;;;;;6243577;23;20097;-75
2022/10/02 07:07:44;;;;;;;28.65;4.53;;;12.10;99.90;;;;;;6243633;23;20056;-75
2022/10/02 07:10:24;;;;;;;21.92;4.07;;;12.10;99.90;;;;;;6245149;22;20120;-76
2022/10/02 07:13:01;;;;;;;29.60;4.63;;;12.10;99.90;;;;;;6245881;22;20400;-80
2022/10/02 07:16:06;;;;;;;18.80;3.33;;;12.20;99.90;;;;;;6243522;23;20107;-79
2022/10/02 07:19:05;;;;;;;25.90;6.15;;;12.20;99.90;;;;;;6242937;23;20024;-82
2022/10/02 07:21:55;;;;;;;22.20;3.60;;;12.30;99.90;;;;;;6244000;23;20024;-77
2022/10/02 07:24:49;;;;;;;25.05;4.07;;;12.40;99.90;;;;;;6242573;23;20440;-76
2022/10/02 07:27:19;;;;;;;17.02;3.13;;;12.70;99.90;;;;;;6242693;23;20020;-76
2022/10/02 07:29:56;;;;;;;21.42;3.92;;;12.80;99.90;;;;;;6244424;22;20031;-78
2022/10/02 07:32:46;;;;;;;15.82;2.60;;;12.90;99.90;;;;;;6242760;23;20078;-85
2022/10/02 07:35:50;;;;;;;20.45;3.75;;;12.90;99.90;;;;;;6242584;23;20031;-79
2022/10/02 07:38:41;;;;;;;17.02;3.33;;;13.00;99.90;;;;;;6217442;23;20081;-84
2022/10/02 07:41:26;;;;;;;16.60;2.88;;;13.00;99.90;;;;;;6245540;22;20337;-76
2022/10/02 07:44:17;;;;;;;16.35;3.38;;;12.90;99.90;;;;;;6242927;23;20029;-76
2022/10/02 07:46:53;;;;;;;29.17;3.58;;;13.10;99.90;;;;;;6244566;23;20028;-82
2022/10/02 07:49:41;;;;;;;26.80;3.55;;;13.20;99.90;;;;;;6217741;23;20028;-81
2022/10/02 07:52:26;;;;;;;14.02;3.15;;;13.40;99.90;;;;;;6242639;23;20024;-78
2022/10/02 07:55:07;;;;;;;25.95;3.90;;;13.40;99.90;;;;;;6244523;22;20099;-78
2022/10/02 07:57:53;;;;;;;19.08;2.88;;;13.30;99.90;;;;;;6244116;22;20712;-78
2022/10/02 08:00:23;;;;;;;24.63;4.18;;;13.40;99.90;;;;;;6244428;22;20102;-76
2022/10/02 08:02:53;;;;;;;15.75;3.20;;;13.30;99.90;;;;;;6244008;22;20024;-78
2022/10/02 08:05:35;;;;;;;18.60;4.22;;;13.40;99.90;;;;;;6244943;23;20405;-77
2022/10/02 08:08:18;;;;;;;19.48;2.75;;;13.50;99.90;;;;;;6243957;23;20056;-77
2022/10/02 08:10:48;;;;;;;23.25;3.85;;;13.60;99.90;;;;;;6242893;23;20036;-77
2022/10/02 08:13:23;;;;;;;12.95;2.88;;;13.80;99.90;;;;;;6244562;22;20029;-77
2022/10/02 08:15:53;;;;;;;16.45;3.13;;;13.90;99.90;;;;;;6244059;22;20027;-81
2022/10/02 08:18:25;;;;;;;22.92;3.20;;;14.00;99.90;;;;;;6242489;23;20031;-79
2022/10/02 08:20:51;;;;;;;20.63;3.42;;;13.90;99.90;;;;;;6242376;23;20063;-81
2022/10/02 08:23:32;;;;;;;17.55;5.28;;;13.80;99.90;;;;;;6243679;23;20024;-78
2022/10/02 08:26:16;;;;;;;16.60;3.47;;;13.60;99.90;;;;;;6242649;23;20333;-80
2022/10/02 08:28:50;;;;;;;26.33;3.73;;;13.50;99.90;;;;;;6242595;23;20125;-79
2022/10/02 08:31:16;;;;;;;15.52;2.92;;;13.50;99.90;;;;;;6217153;23;20024;-82
2022/10/02 08:33:42;;;;;;;18.23;3.10;;;13.40;99.90;;;;;;6243821;23;20104;-79
2022/10/02 08:36:47;;;;;;;16.00;3.63;;;13.50;99.90;;;;;;6244436;23;20020;-78
2022/10/02 08:39:13;;;;;;;11.93;3.67;;;13.50;99.90;;;;;;6219276;23;20496;-76
2022/10/02 08:42:08;;;;;;;25.48;3.25;;;13.50;99.90;;;;;;6242415;23;20062;-77
2022/10/02 08:44:34;;;;;;;;;;;13.70;99.90;;;;;;6215187;23;20025;-77
2022/10/02 08:47:09;;;;;;;16.38;2.63;;;13.90;99.90;;;;;;6243914;23;20434;-78
2022/10/02 08:49:53;;;;;;;;;;;13.90;99.90;;;;;;6242453;23;20024;-80
2022/10/02 08:52:41;;;;;;;19.73;3.65;;;13.90;99.90;;;;;;6240671;23;19977;-80
2022/10/02 08:55:25;;;;;;;14.60;2.97;;;14.10;99.90;;;;;;6241813;23;20476;-77
2022/10/02 08:58:29;;;;;;;24.27;3.65;;;14.30;99.90;;;;;;6244046;23;20711;-76
2022/10/02 09:01:17;;;;;;;20.55;2.95;;;14.50;99.90;;;;;;6244073;23;20318;-78
2022/10/02 09:03:46;;;;;;;15.57;3.03;;;14.80;99.90;;;;;;6242322;23;20495;-80
2022/10/02 09:06:48;;;;;;;15.15;3.00;;;15.00;99.90;;;;;;6242319;23;20020;-80
2022/10/02 09:09:33;;;;;;;14.00;3.38;;;15.20;99.90;;;;;;6242611;23;20071;-77
2022/10/02 09:12:37;;;;;;;24.65;3.80;;;15.30;99.90;;;;;;6244863;23;20028;-78
2022/10/02 09:15:15;;;;;;;16.70;3.70;;;15.50;99.90;;;;;;6244128;22;20437;-79
2022/10/02 09:17:46;;;;;;;17.13;3.63;;;15.60;99.90;;;;;;6242963;23;20070;-79
2022/10/02 09:20:57;;;;;;;25.98;3.65;;;15.60;99.90;;;;;;6244347;22;20024;-79
2022/10/02 09:23:51;;;;;;;19.40;3.72;;;15.70;99.90;;;;;;6224556;23;20017;-76
2022/10/02 09:26:39;;;;;;;28.90;4.65;;;15.80;99.90;;;;;;6245143;23;20028;-79
2022/10/02 09:29:33;;;;;;;27.08;4.43;;;15.80;99.90;;;;;;6243613;23;20035;-80
2022/10/02 09:32:21;;;;;;;18.03;3.27;;;15.80;99.90;;;;;;6244638;22;20020;-77
2022/10/02 09:35:22;;;;;;;10.73;2.90;;;15.90;99.90;;;;;;6244308;23;20247;-79
2022/10/02 09:38:14;;;;;;;25.35;4.22;;;16.10;99.90;;;;;;6244301;22;20024;-79
2022/10/02 09:40:57;;;;;;;26.60;3.65;;;16.20;99.90;;;;;;6230161;23;20026;-79
2022/10/02 09:43:26;;;;;;;21.80;4.35;;;16.30;99.90;;;;;;6243166;22;20510;-81
2022/10/02 09:46:30;;;;;;;28.90;4.72;;;16.50;99.90;;;;;;6243837;23;20016;-80
2022/10/02 09:49:07;;;;;;;16.90;3.63;;;16.50;99.90;;;;;;6243112;23;20016;-81
2022/10/02 09:52:12;;;;;;;20.27;3.42;;;16.50;99.90;;;;;;6243504;22;20106;-79
2022/10/02 09:55:20;;;;;;;17.23;3.40;;;16.70;99.90;;;;;;6230611;23;20031;-79
2022/10/02 09:58:15;;;;;;;19.13;3.65;;;16.70;99.90;;;;;;6188642;23;20021;-81
2022/10/02 10:01:00;;;;;;;17.27;2.83;;;16.70;99.90;;;;;;6212138;23;20024;-80
2022/10/02 10:03:45;;;;;;;19.88;3.30;;;16.80;99.90;;;;;;6257006;22;20166;-80
2022/10/02 10:06:24;;;;;;;17.35;3.30;;;16.90;99.90;;;;;;6245037;22;20048;-80
2022/10/02 10:09:10;;;;;;;16.75;2.88;;;17.00;99.90;;;;;;6247003;22;20334;-79
2022/10/02 10:11:58;;;;;;;20.98;3.50;;;17.10;99.90;;;;;;6245123;22;20043;-81
2022/10/02 10:14:52;;;;;;;20.85;4.05;;;17.30;99.90;;;;;;6238620;23;20074;-82
2022/10/02 10:17:18;;;;;;;15.30;3.08;;;17.40;99.90;;;;;;6243545;23;20078;-80
2022/10/02 10:20:14;;;;;;;13.85;3.20;;;17.50;99.90;;;;;;6243702;22;20028;-82
2022/10/02 10:23:02;;;;;;;17.58;3.00;;;17.60;99.90;;;;;;6244359;22;20062;-80
2022/10/02 10:26:05;;;;;;;15.93;2.55;;;17.70;99.90;;;;;;6241545;23;20027;-80
2022/10/02 10:29:09;;;;;;;15.80;3.80;;;17.80;99.90;;;;;;6242000;23;20103;-79
2022/10/02 10:31:44;;;;;;;17.63;3.30;;;17.90;99.90;;;;;;6244020;22;20020;-88
2022/10/02 10:34:28;;;;;;;14.52;2.67;;;18.00;99.90;;;;;;6245802;23;20020;-81
2022/10/02 10:40:23;;;;;;;17.27;3.63;;;18.50;99.90;;;;;;6243310;23;20027;-81
2022/10/02 10:43:20;;;;;;;25.57;3.10;;;18.50;99.90;;;;;;6243720;22;20516;-79
2022/10/02 10:46:02;;;;;;;18.67;2.53;;;18.60;99.90;;;;;;6243853;22;20020;-80
2022/10/02 10:49:24;;;;;;;18.27;3.17;;;18.90;99.90;;;;;;6242722;23;20020;-81
2022/10/02 10:52:17;;;;;;;11.93;2.40;;;19.00;99.90;;;;;;6209367;22;20035;-78
2022/10/02 10:55:05;;;;;;;15.73;2.60;;;19.00;99.90;;;;;;6246203;23;20090;-81
2022/10/02 10:57:44;;;;;;;20.48;4.95;;;19.20;99.90;;;;;;6246234;22;20020;-79
2022/10/02 11:00:22;;;;;;;13.70;2.35;;;19.50;99.90;;;;;;6244221;23;20055;-79
2022/10/02 11:03:03;;;;;;;14.52;2.97;;;19.60;99.90;;;;;;6245283;23;20016;-78
2022/10/02 11:05:56;;;;;;;16.73;2.47;;;19.70;99.90;;;;;;6255077;23;20024;-86
2022/10/02 11:08:42;;;;;;;14.73;3.00;;;19.80;99.90;;;;;;6250155;22;20020;-82
2022/10/02 11:11:26;;;;;;;15.70;2.83;;;20.20;99.90;;;;;;6244438;22;20079;-82
2022/10/02 11:14:14;;;;;;;18.15;3.05;;;20.40;99.90;;;;;;6244089;22;20495;-78
2022/10/02 11:17:06;;;;;;;14.77;2.95;;;20.30;99.90;;;;;;6244090;23;20026;-77
2022/10/02 11:19:35;;;;;;;23.92;3.28;;;20.60;99.90;;;;;;6245404;23;20070;-79
2022/10/02 11:22:24;;;;;;;12.00;3.00;;;20.80;99.90;;;;;;6244658;23;20024;-82
2022/10/02 11:25:20;;;;;;;14.55;2.25;;;21.20;99.90;;;;;;6245162;23;20078;-79
2022/10/02 11:28:04;;;;;;;14.55;2.78;;;21.50;98.70;;;;;;6245533;22;20047;-81
2022/10/02 11:30:53;;;;;;;13.93;2.83;;;21.60;98.20;;;;;;6245656;22;20024;-82
2022/10/02 11:34:00;;;;;;;16.20;4.40;;;22.00;99.70;;;;;;6246660;22;20078;-79
2022/10/02 11:36:41;;;;;;;20.23;3.65;;;22.40;98.20;;;;;;6243941;23;20052;-86
2022/10/02 11:39:36;;;;;;;13.73;2.90;;;22.50;98.40;;;;;;6245910;22;20030;-80
2022/10/02 11:42:14;;;;;;;18.60;2.90;;;23.00;97.20;;;;;;6229886;23;20016;-81
2022/10/02 11:45:11;;;;;;;14.85;3.67;;;22.70;97.70;;;;;;6245785;22;20107;-80
2022/10/02 11:48:08;;;;;;;12.60;2.75;;;22.90;96.20;;;;;;6248062;22;20016;-80
2022/10/02 11:50:54;;;;;;;17.40;2.80;;;23.30;95.20;;;;;;6248954;22;20039;-86
2022/10/02 11:53:53;;;;;;;12.73;2.92;;;23.50;95.90;;;;;;6245289;23;20027;-87
2022/10/02 11:56:30;;;;;;;24.17;3.95;;;23.60;93.40;;;;;;6244394;22;20027;-83
2022/10/02 11:59:17;;;;;;;15.48;3.17;;;22.50;95.30;;;;;;6243134;23;20465;-82
2022/10/02 12:02:03;;;;;;;15.27;3.90;;;22.00;96.20;;;;;;6245212;22;20352;-84
2022/10/02 12:04:51;;;;;;;13.43;2.80;;;21.30;97.20;;;;;;6247170;22;20039;-84
2022/10/02 12:07:39;;;;;;;15.65;2.72;;;22.00;97.10;;;;;;6245476;22;20028;-79
2022/10/02 12:10:16;;;;;;;14.32;3.13;;;22.00;95.80;;;;;;6248092;22;20020;-79
2022/10/02 12:12:42;;;;;;;13.88;3.10;;;22.60;95.50;;;;;;6245731;22;20162;-82
2022/10/02 12:15:25;;;;;;;15.90;2.88;;;23.40;94.70;;;;;;6244871;23;20059;-78
2022/10/02 12:18:11;;;;;;;17.38;3.25;;;24.20;93.70;;;;;;6245292;22;20020;-81
2022/10/02 12:29:47;;;;;;;12.65;2.80;;;26.50;88.20;;;;;;6245360;23;19919;-80
2022/10/02 12:32:16;;;;;;;;;;;26.60;86.40;;;;;;6247681;23;20028;-84
2022/10/02 12:35:03;;;;;;;19.38;3.00;;;25.60;86.80;;;;;;6249724;23;19915;-81
2022/10/02 12:37:35;;;;;;;14.75;2.72;;;25.50;90.00;;;;;;6247413;22;20030;-80
2022/10/02 12:40:16;;;;;;;17.05;3.88;;;25.30;88.70;;;;;;6247341;23;20020;-81
2022/10/02 12:43:03;;;;;;;17.80;4.53;;;26.00;89.80;;;;;;6242350;23;20020;-82
2022/10/02 12:45:57;;;;;;;10.10;2.70;;;26.30;86.00;;;;;;6244479;22;20528;-81
2022/10/02 12:49:00;;;;;;;12.82;2.83;;;26.80;87.50;;;;;;6242980;23;20024;-85
2022/10/02 12:51:55;;;;;;;15.18;3.20;;;27.50;84.90;;;;;;6218610;23;20394;-80
2022/10/02 12:54:39;;;;;;;11.53;2.40;;;27.30;82.30;;;;;;6245894;23;20035;-81
2022/10/02 13:00:13;;;;;;;14.23;3.35;;;27.80;83.30;;;;;;6244882;23;20337;-84
2022/10/02 13:02:58;;;;;;;19.05;4.70;;;28.10;82.10;;;;;;6246917;22;20344;-81
2022/10/02 13:09:10;;;;;;;13.82;3.00;;;27.70;81.90;;;;;;6244101;23;20323;-82
2022/10/02 13:11:57;;;;;;;12.00;2.58;;;28.00;79.20;;;;;;6241609;23;20095;-83
2022/10/02 13:14:35;;;;;;;20.33;2.92;;;28.30;77.30;;;;;;6247779;22;20024;-82
2022/10/02 13:17:26;;;;;;;14.80;3.15;;;28.60;76.60;;;;;;6245464;23;20026;-82
2022/10/02 13:20:03;;;;;;;15.82;3.55;;;28.70;77.30;;;;;;6246648;23;20429;-77
2022/10/02 13:22:38;;;;;;;14.73;3.67;;;28.80;76.80;;;;;;6243129;23;20020;-82
2022/10/02 13:25:37;;;;;;;13.27;3.05;;;28.50;76.10;;;;;;6242442;23;20487;-82
2022/10/02 13:28:25;;;;;;;16.40;4.38;;;28.90;73.40;;;;;;6243051;23;20028;-82
2022/10/02 13:31:37;;;;;;;12.63;3.28;;;29.10;77.40;;;;;;6244092;23;20103;-85
2022/10/02 13:34:39;;;;;;;17.23;3.15;;;29.30;74.90;;;;;;6225445;23;20043;-81
2022/10/02 13:37:08;;;;;;;15.77;3.85;;;28.50;74.90;;;;;;6244032;22;20028;-85
2022/10/02 13:39:55;;;;;;;16.30;3.75;;;28.30;75.30;;;;;;6242690;23;20133;-83
2022/10/02 13:42:35;;;;;;;18.40;2.75;;;26.80;74.10;;;;;;6247211;23;20016;-81
2022/10/02 13:45:01;;;;;;;16.35;4.07;;;26.90;76.80;;;;;;6244250;23;20028;-85
2022/10/02 13:47:57;;;;;;;13.85;2.90;;;27.50;76.90;;;;;;6245043;22;20019;-84
2022/10/02 13:50:54;;;;;;;12.82;2.83;;;28.00;75.80;;;;;;6243805;22;20024;-82
2022/10/02 13:53:51;;;;;;;17.98;3.08;;;28.10;75.20;;;;;;6244078;23;20103;-82
2022/10/02 13:56:17;;;;;;;13.52;3.45;;;26.60;76.40;;;;;;6241796;23;20098;-81
2022/10/02 13:59:17;;;;;;;14.70;3.13;;;25.20;79.60;;;;;;6241392;23;20511;-81
2022/10/02 14:02:14;;;;;;;13.30;3.47;;;24.10;82.10;;;;;;6244338;22;20025;-84
2022/10/02 14:04:54;;;;;;;15.90;3.85;;;24.10;84.40;;;;;;6248132;22;20032;-81
2022/10/02 14:07:41;;;;;;;17.17;3.95;;;25.30;84.10;;;;;;6241649;23;20063;-81
2022/10/02 14:10:37;;;;;;;13.73;3.85;;;25.80;80.80;;;;;;6243621;22;20457;-82
2022/10/02 14:13:18;;;;;;;19.52;4.68;;;27.10;81.70;;;;;;6243281;22;20065;-83
2022/10/02 14:16:29;;;;;;;17.30;2.65;;;27.70;77.70;;;;;;6242963;22;20020;-85
2022/10/02 14:19:17;;;;;;;14.93;2.80;;;28.70;75.40;;;;;;6225765;23;20028;-81